πŸ“Š DonnΓ©es MΓ©tΓ©o - Bordeaux

Total mesures

14,411

TempΓ©rature moyenne

18.9Β°C

Temp. Min/Max

2.9Β° / 42.4Β°

HumiditΓ© moyenne

64.8%

Pression moyenne

1014.7 hPa
enregistrements
ID Date/Heure Temp (Β°C) HumiditΓ© (%) Pression (hPa) Tendance LuminositΓ© (lux) Situation
11411 14/07/2026 18:45 35.4 32.0 1,010.6 β†’ Stable 15,180 chaleur-seche
11410 14/07/2026 18:15 35.7 32.0 1,010.6 β†’ Stable 25,092 chaleur-seche
11409 14/07/2026 17:45 36.0 33.0 1,010.7 β†’ Stable 34,356 chaleur-seche
11408 14/07/2026 17:15 36.5 31.0 1,010.7 β†’ Stable 44,076 chaleur-seche
11407 14/07/2026 16:45 36.7 31.0 1,011.3 β†’ Stable 52,776 chaleur-seche
11406 14/07/2026 16:15 36.9 30.0 1,011.3 β†’ Stable 62,772 chaleur-seche
11405 14/07/2026 15:45 37.3 30.0 1,011.7 β†’ Stable 70,464 chaleur-seche
11404 14/07/2026 15:15 36.6 30.0 1,011.7 β†’ Stable 83,520 chaleur-seche
11403 14/07/2026 14:45 36.2 32.0 1,012.0 β†’ Stable 90,828 chaleur-seche
11402 14/07/2026 14:15 35.9 33.0 1,012.0 β†’ Stable 96,672 chaleur-seche
11401 14/07/2026 13:45 35.4 36.0 1,012.7 β†’ Stable 101,292 chaleur-seche
11400 14/07/2026 13:15 34.6 39.0 1,012.9 β†’ Stable 104,448 chaleur-seche
11399 14/07/2026 12:45 34.1 40.0 1,013.3 β†’ Stable 106,392 confortablement-chaud (approx.)
11398 14/07/2026 12:15 34.0 40.0 1,013.3 β†’ Stable 107,040 confortablement-chaud (approx.)
11397 14/07/2026 12:00 33.8 40.0 1,013.3 β†’ Stable 106,848 confortablement-chaud (approx.)
11396 14/07/2026 11:45 33.7 40.0 1,013.4 β†’ Stable 106,296 confortablement-chaud (approx.)
11395 14/07/2026 11:15 33.2 41.0 1,013.4 β†’ Stable 103,056 confortablement-chaud (approx.)
11394 14/07/2026 10:45 32.5 41.0 1,014.0 β†’ Stable 99,540 confortablement-chaud (approx.)
11393 14/07/2026 10:15 32.1 37.0 1,014.0 β†’ Stable 94,536 chaleur-seche
11392 14/07/2026 09:45 31.0 38.0 1,014.1 β†’ Stable 88,524 chaleur-seche
11391 14/07/2026 09:15 29.8 42.0 1,014.1 β†’ Stable 80,004 confortablement-chaud (approx.)
11390 14/07/2026 08:45 28.6 48.0 1,014.0 β†’ Stable 72,312 confortablement-chaud
11389 14/07/2026 08:15 27.0 57.0 1,014.0 β†’ Stable 61,848 confortablement-chaud (approx.)
11388 14/07/2026 07:45 25.8 64.0 1,014.1 β†’ Stable 53,244 confortablement-chaud (approx.)
11387 14/07/2026 07:15 24.2 72.0 1,014.1 β†’ Stable 39,168 pluvieux-gris (approx.)
11386 14/07/2026 07:00 23.6 75.0 1,014.1 β†’ Stable 34,080 pluvieux-gris (approx.)
11385 14/07/2026 06:45 23.1 78.0 1,014.0 β†’ Stable 30,372 pluvieux-gris (approx.)
11384 14/07/2026 06:15 21.9 84.0 1,014.0 β†’ Stable 18,060 pluvieux-gris (approx.)
11383 14/07/2026 06:00 21.6 86.0 1,014.0 β†’ Stable 14,256 pluvieux-gris (approx.)
11382 14/07/2026 05:45 21.4 88.0 1,013.8 β†’ Stable 11,388 pluvieux-gris (approx.)
11381 14/07/2026 05:15 21.2 89.0 1,013.8 β†’ Stable 4,080 pluvieux-gris (approx.)
11380 14/07/2026 05:00 21.2 89.0 1,013.8 β†’ Stable 1,848 pluvieux-gris (approx.)
11379 14/07/2026 04:45 21.2 89.0 1,013.9 β†’ Stable 372 pluvieux-gris (approx.)
11378 14/07/2026 04:15 21.4 87.0 1,013.9 β†’ Stable 0 pluvieux-gris (approx.)
11377 14/07/2026 03:45 21.6 86.0 1,013.9 β†’ Stable 0 pluvieux-gris (approx.)
11376 14/07/2026 03:15 21.8 83.0 1,013.9 β†’ Stable 0 pluvieux-gris (approx.)
11375 14/07/2026 03:00 22.0 82.0 1,013.9 β†’ Stable 0 pluvieux-gris (approx.)
11374 14/07/2026 02:45 22.3 79.0 1,013.7 β†’ Stable 0 pluvieux-gris (approx.)
11373 14/07/2026 02:15 22.5 75.0 1,013.7 β†’ Stable 0 pluvieux-gris (approx.)
11372 14/07/2026 01:45 22.4 77.0 1,013.3 β†’ Stable 0 pluvieux-gris (approx.)
11371 14/07/2026 01:15 22.9 75.0 1,013.3 β†’ Stable 0 pluvieux-gris (approx.)
11370 14/07/2026 00:45 23.0 75.0 1,013.1 β†’ Stable 0 pluvieux-gris (approx.)
11369 14/07/2026 00:15 23.2 76.0 1,013.1 β†’ Stable 0 pluvieux-gris (approx.)
11368 13/07/2026 23:45 23.3 77.0 1,013.3 β†’ Stable 0 pluvieux-gris (approx.)
11367 13/07/2026 23:15 23.8 77.0 1,013.3 β†’ Stable 0 pluvieux-gris (approx.)
11366 13/07/2026 22:45 24.0 76.0 1,012.8 β†’ Stable 0 pluvieux-gris (approx.)
11365 13/07/2026 22:15 24.3 75.0 1,012.8 β†’ Stable 0 pluvieux-gris (approx.)
11364 13/07/2026 21:45 24.6 73.0 1,012.4 β†’ Stable 0 pluvieux-gris (approx.)
11363 13/07/2026 21:15 25.2 71.0 1,012.4 β†’ Stable 0 pluvieux-gris (approx.)
11362 13/07/2026 20:45 25.7 67.0 1,011.8 β†’ Stable 0 confortablement-chaud (approx.)
11361 13/07/2026 20:15 26.9 59.0 1,011.8 β†’ Stable 0 confortablement-chaud (approx.)
11360 13/07/2026 19:45 27.8 55.0 1,011.4 β†’ Stable 744 confortablement-chaud (approx.)
11359 13/07/2026 19:15 29.2 47.0 1,011.4 β†’ Stable 6,204 conditions-neutrales-ou-non-definies
11358 13/07/2026 18:45 29.7 48.0 1,011.3 β†’ Stable 12,312 conditions-neutrales-ou-non-definies
11357 13/07/2026 18:15 30.2 45.0 1,011.3 β†’ Stable 24,444 conditions-neutrales-ou-non-definies
11356 13/07/2026 17:45 31.1 44.0 1,010.9 β†’ Stable 33,888 conditions-neutrales-ou-non-definies
11355 13/07/2026 17:15 31.9 43.0 1,010.9 β†’ Stable 44,352 conditions-neutrales-ou-non-definies
11354 13/07/2026 16:45 32.1 43.0 1,010.8 β†’ Stable 53,520 conditions-neutrales-ou-non-definies
11353 13/07/2026 16:15 32.4 42.0 1,010.8 β†’ Stable 64,440 conditions-neutrales-ou-non-definies
11352 13/07/2026 15:45 32.3 43.0 1,011.1 β†’ Stable 72,876 confortablement-chaud (approx.)
11351 13/07/2026 15:15 32.5 41.0 1,011.1 β†’ Stable 81,300 confortablement-chaud (approx.)
11350 13/07/2026 14:45 32.3 44.0 1,011.1 β†’ Stable 88,236 confortablement-chaud (approx.)
11349 13/07/2026 14:15 32.5 44.0 1,011.1 β†’ Stable 96,024 confortablement-chaud (approx.)
11348 13/07/2026 13:45 32.4 44.0 1,011.3 β†’ Stable 101,388 confortablement-chaud (approx.)
11347 13/07/2026 13:15 31.9 45.0 1,011.7 β†’ Stable 104,532 confortablement-chaud (approx.)
11346 13/07/2026 12:45 31.4 47.0 1,011.8 β†’ Stable 106,476 confortablement-chaud (approx.)
11345 13/07/2026 12:15 31.3 47.0 1,011.8 β†’ Stable 98,700 confortablement-chaud (approx.)
11344 13/07/2026 11:45 30.8 50.0 1,011.8 β†’ Stable 96,300 confortablement-chaud (approx.)
11343 13/07/2026 11:15 31.2 46.0 1,011.8 β†’ Stable 102,504 confortablement-chaud (approx.)
11342 13/07/2026 10:45 30.5 50.0 1,012.0 β†’ Stable 101,208 confortablement-chaud (approx.)
11341 13/07/2026 10:15 29.9 54.0 1,012.0 β†’ Stable 93,144 confortablement-chaud (approx.)
11340 13/07/2026 09:45 29.2 58.0 1,011.8 β†’ Stable 88,800 confortablement-chaud (approx.)
11339 13/07/2026 09:15 28.6 58.0 1,011.8 β†’ Stable 79,440 confortablement-chaud
11338 13/07/2026 08:45 27.8 62.0 1,012.1 β†’ Stable 71,940 confortablement-chaud
11337 13/07/2026 08:15 27.3 63.0 1,012.1 β†’ Stable 60,924 confortablement-chaud (approx.)
11336 13/07/2026 07:45 26.6 65.0 1,011.9 β†’ Stable 52,128 confortablement-chaud (approx.)
11335 13/07/2026 07:15 26.1 69.0 1,011.9 β†’ Stable 40,464 confortablement-chaud (approx.)
11334 13/07/2026 07:00 25.7 72.0 1,011.9 β†’ Stable 35,736 pluvieux-gris (approx.)
11333 13/07/2026 06:45 25.3 74.0 1,011.4 β†’ Stable 31,764 pluvieux-gris (approx.)
11332 13/07/2026 06:15 24.5 79.0 1,011.4 β†’ Stable 19,728 pluvieux-gris (approx.)
11331 13/07/2026 06:00 24.3 80.0 1,011.4 β†’ Stable 15,744 pluvieux-gris (approx.)
11330 13/07/2026 05:45 24.0 81.0 1,011.1 β†’ Stable 12,588 pluvieux-gris (approx.)
11329 13/07/2026 05:15 24.3 74.0 1,011.1 β†’ Stable 4,536 pluvieux-gris (approx.)
11328 13/07/2026 05:00 24.4 71.0 1,011.1 β†’ Stable 2,124 pluvieux-gris (approx.)
11327 13/07/2026 04:45 24.4 70.0 1,010.8 β†’ Stable 468 pluvieux-gris (approx.)
11326 13/07/2026 04:15 24.9 68.0 1,010.8 β†’ Stable 0 confortablement-chaud (approx.)
11325 13/07/2026 03:45 25.1 66.0 1,009.7 β†’ Stable 0 confortablement-chaud (approx.)
11324 13/07/2026 03:15 25.6 66.0 1,009.7 β†’ Stable 0 confortablement-chaud (approx.)
11323 13/07/2026 03:00 25.7 66.0 1,009.7 β†’ Stable 0 confortablement-chaud (approx.)
11322 13/07/2026 02:45 25.7 66.0 1,009.4 β†’ Stable 0 confortablement-chaud (approx.)
11321 13/07/2026 02:15 25.8 65.0 1,009.4 β†’ Stable 0 confortablement-chaud (approx.)
11320 13/07/2026 01:45 26.1 61.0 1,009.1 β†’ Stable 0 confortablement-chaud (approx.)
11319 13/07/2026 01:15 27.2 55.0 1,009.3 β†’ Stable 0 confortablement-chaud (approx.)
11318 13/07/2026 00:45 27.3 57.0 1,008.5 β†’ Stable 0 confortablement-chaud (approx.)
11317 13/07/2026 00:15 27.8 60.0 1,008.5 β†’ Stable 0 confortablement-chaud (approx.)
11316 12/07/2026 23:45 27.9 62.0 1,007.9 β†’ Stable 0 confortablement-chaud (approx.)
11315 12/07/2026 23:15 28.4 63.0 1,007.9 β†’ Stable 0 confortablement-chaud (approx.)
11314 12/07/2026 22:45 31.3 37.0 1,008.6 β†’ Stable 0 chaleur-seche
11313 12/07/2026 22:15 27.8 66.0 1,008.6 β†’ Stable 0 confortablement-chaud (approx.)
11312 12/07/2026 21:45 29.2 62.0 1,006.7 β†’ Stable 0 conditions-neutrales-ou-non-definies